createdAt,value
2019-05-29T00:02:18.386Z,73.44
2019-05-29T00:05:22.653Z,73.65
2019-05-29T00:08:26.659Z,73.78
2019-05-29T00:11:30.597Z,73.93
2019-05-29T00:14:34.558Z,74.03
2019-05-29T00:17:38.569Z,74.25
2019-05-29T00:20:42.594Z,74.58
2019-05-29T00:23:46.889Z,74.90
2019-05-29T00:26:50.888Z,75.08
2019-05-29T00:29:55.557Z,75.16
2019-05-29T00:32:59.874Z,74.96
2019-05-29T00:36:04.196Z,74.97
2019-05-29T00:39:08.745Z,75.05
2019-05-29T00:42:13.251Z,75.12
2019-05-29T00:45:19.473Z,75.20
2019-05-29T00:48:23.749Z,75.15
2019-05-29T00:51:27.761Z,75.29
2019-05-29T00:54:32.380Z,75.36
2019-05-29T00:57:36.600Z,75.50
2019-05-29T01:00:40.630Z,75.68
2019-05-29T01:03:44.660Z,75.72
2019-05-29T01:06:49.268Z,75.76
2019-05-29T01:09:53.214Z,75.88
2019-05-29T01:12:57.809Z,76.14
2019-05-29T01:16:01.957Z,76.31
2019-05-29T01:19:23.837Z,76.32
2019-05-29T01:22:27.854Z,76.43
2019-05-29T01:25:31.941Z,76.54
2019-05-29T01:28:36.119Z,76.69
2019-05-29T01:31:40.063Z,76.60
2019-05-29T01:34:44.015Z,76.59
2019-05-29T01:37:48.163Z,76.61
2019-05-29T01:40:52.364Z,76.72
2019-05-29T01:43:56.652Z,76.55
2019-05-29T01:47:01.025Z,76.50
2019-05-29T01:50:05.778Z,76.43
2019-05-29T01:53:10.083Z,76.51
2019-05-29T01:56:15.474Z,76.52
2019-05-29T01:59:20.161Z,76.54
2019-05-29T02:02:24.387Z,76.65
2019-05-29T02:05:28.604Z,76.69
2019-05-29T02:08:32.800Z,76.86
2019-05-29T02:11:37.094Z,76.93
2019-05-29T02:14:41.353Z,76.96
2019-05-29T02:17:45.607Z,76.88
2019-05-29T02:20:49.921Z,76.97
2019-05-29T02:23:54.129Z,76.95
2019-05-29T02:26:58.551Z,76.78
2019-05-29T02:30:02.680Z,76.60
2019-05-29T02:33:06.718Z,76.40
2019-05-29T02:36:11.008Z,76.11
2019-05-29T02:39:15.519Z,75.83
2019-05-29T02:42:20.972Z,75.55
2019-05-29T02:45:49.256Z,75.41
2019-05-29T02:48:31.797Z,75.26
2019-05-29T02:51:35.885Z,75.04
2019-05-29T02:54:39.901Z,75.03
2019-05-29T02:57:44.153Z,75.10
2019-05-29T03:00:52.740Z,75.13
2019-05-29T03:03:57.128Z,75.17
2019-05-29T03:07:01.402Z,75.13
2019-05-29T03:10:06.449Z,75.19
2019-05-29T03:13:10.793Z,75.23
2019-05-29T03:16:15.001Z,75.19
2019-05-29T03:19:19.004Z,75.16
2019-05-29T03:22:24.131Z,75.02
2019-05-29T03:25:28.454Z,74.88
2019-05-29T03:28:34.800Z,74.82
2019-05-29T03:31:46.577Z,74.90
2019-05-29T03:34:46.742Z,74.82
2019-05-29T03:37:50.471Z,74.93
2019-05-29T03:40:54.857Z,75.05
2019-05-29T03:43:58.730Z,75.13
2019-05-29T03:47:02.770Z,75.13
2019-05-29T03:50:07.255Z,75.01
2019-05-29T03:53:11.588Z,75.05
2019-05-29T03:56:16.205Z,74.91
2019-05-29T03:59:20.729Z,74.83
2019-05-29T04:02:24.757Z,74.75
2019-05-29T04:05:29.141Z,74.66
2019-05-29T04:08:35.528Z,74.70
2019-05-29T04:11:40.479Z,74.52
2019-05-29T04:14:44.752Z,74.42
2019-05-29T04:17:49.319Z,74.19
2019-05-29T04:20:53.504Z,74.17
2019-05-29T04:24:00.294Z,74.19
2019-05-29T04:27:05.109Z,74.07
2019-05-29T04:30:09.936Z,73.91
2019-05-29T04:33:13.884Z,73.71
2019-05-29T04:36:18.143Z,73.53
2019-05-29T04:39:22.072Z,73.43
2019-05-29T04:42:26.017Z,73.37
2019-05-29T04:45:30.888Z,73.31
2019-05-29T04:48:36.142Z,73.14
2019-05-29T04:51:40.680Z,73.17
2019-05-29T04:54:44.888Z,73.03
2019-05-29T04:57:50.905Z,72.91
2019-05-29T05:00:59.050Z,72.62
2019-05-29T05:04:01.417Z,72.28
2019-05-29T05:07:05.761Z,71.72
2019-05-29T05:10:10.294Z,71.28
2019-05-29T05:13:14.241Z,70.29
2019-05-29T05:16:18.532Z,69.42
2019-05-29T05:19:22.461Z,69.23
2019-05-29T05:22:26.506Z,68.88
2019-05-29T05:25:34.403Z,68.67
2019-05-29T05:28:38.640Z,68.38
2019-05-29T05:31:43.023Z,68.62
2019-05-29T05:34:47.107Z,68.53
2019-05-29T05:37:51.267Z,68.63
2019-05-29T05:40:55.245Z,68.92
2019-05-29T05:43:59.441Z,69.07
2019-05-29T05:47:03.419Z,69.21
2019-05-29T05:50:07.770Z,69.00
2019-05-29T05:53:11.847Z,68.82
2019-05-29T05:56:15.825Z,68.80
2019-05-29T05:59:19.949Z,68.75
2019-05-29T06:02:24.371Z,68.78
2019-05-29T06:05:28.432Z,68.85
2019-05-29T06:08:33.970Z,68.84
2019-05-29T06:11:38.336Z,68.96
2019-05-29T06:14:42.828Z,68.80
2019-05-29T06:18:10.194Z,68.56
2019-05-29T06:20:53.424Z,68.30
2019-05-29T06:23:57.618Z,67.86
2019-05-29T06:27:01.571Z,67.60
2019-05-29T06:30:06.272Z,67.18
2019-05-29T06:33:10.693Z,66.59
2019-05-29T06:36:15.140Z,65.99
2019-05-29T06:39:19.178Z,65.28
2019-05-29T06:42:23.712Z,64.82
2019-05-29T06:45:32.291Z,64.38
2019-05-29T06:48:44.828Z,63.98
2019-05-29T06:51:43.461Z,63.83
2019-05-29T06:54:48.205Z,63.63
2019-05-29T06:57:52.172Z,63.75
2019-05-29T07:00:56.565Z,63.87
2019-05-29T07:04:11.416Z,64.36
2019-05-29T07:07:06.575Z,64.62
2019-05-29T07:10:11.153Z,64.79
2019-05-29T07:13:15.670Z,65.25
2019-05-29T07:16:19.929Z,65.43
2019-05-29T07:19:32.773Z,65.69
2019-05-29T07:22:29.889Z,65.84
2019-05-29T07:25:34.120Z,65.82
2019-05-29T07:28:55.482Z,65.87
2019-05-29T07:31:45.035Z,65.87
2019-05-29T07:35:01.886Z,66.01
2019-05-29T07:37:55.091Z,66.05
2019-05-29T07:40:59.034Z,66.11
2019-05-29T07:44:03.733Z,66.32
2019-05-29T07:47:09.989Z,66.42
2019-05-29T07:50:13.757Z,66.38
2019-05-29T07:53:17.877Z,66.22
2019-05-29T07:56:23.299Z,66.16
2019-05-29T07:59:28.693Z,66.17
2019-05-29T08:02:33.189Z,66.06
2019-05-29T08:05:37.183Z,65.83
2019-05-29T08:08:41.588Z,65.31
2019-05-29T08:11:45.720Z,64.70
2019-05-29T08:14:50.274Z,64.01
2019-05-29T08:17:54.871Z,63.32
2019-05-29T08:20:58.950Z,63.26
2019-05-29T08:24:02.930Z,63.37
2019-05-29T08:27:07.002Z,63.77
2019-05-29T08:30:11.423Z,64.41
2019-05-29T08:33:15.428Z,64.94
2019-05-29T08:36:19.777Z,65.35
2019-05-29T08:39:35.361Z,65.74
2019-05-29T08:42:29.645Z,66.03
2019-05-29T08:45:33.671Z,66.14
2019-05-29T08:48:38.275Z,66.46
2019-05-29T08:51:43.891Z,68.13
2019-05-29T08:54:48.110Z,68.97
2019-05-29T08:57:52.529Z,69.16
2019-05-29T09:00:56.545Z,69.03
2019-05-29T09:04:01.145Z,68.38
2019-05-29T09:07:05.178Z,67.42
2019-05-29T09:10:10.171Z,65.68
2019-05-29T09:13:14.443Z,64.06
2019-05-29T09:16:18.741Z,62.94
2019-05-29T09:19:22.885Z,62.81
2019-05-29T09:22:26.876Z,62.89
2019-05-29T09:25:31.630Z,62.88
2019-05-29T09:28:35.653Z,63.19
2019-05-29T09:31:39.939Z,63.83
2019-05-29T09:34:47.582Z,64.21
2019-05-29T09:37:50.333Z,64.37
2019-05-29T09:40:54.703Z,64.75
2019-05-29T09:44:00.372Z,64.99
2019-05-29T09:47:04.709Z,64.92
2019-05-29T09:50:08.741Z,64.24
2019-05-29T09:53:12.949Z,63.63
2019-05-29T09:56:17.045Z,63.35
2019-05-29T09:59:20.973Z,63.16
2019-05-29T10:02:25.238Z,63.06
2019-05-29T10:05:29.251Z,63.10
2019-05-29T10:08:33.270Z,62.96
2019-05-29T10:11:37.433Z,63.17
2019-05-29T10:14:41.792Z,64.30
2019-05-29T10:17:46.423Z,67.42
2019-05-29T10:20:50.695Z,67.05
2019-05-29T10:23:56.665Z,66.82
2019-05-29T10:27:02.708Z,66.10
2019-05-29T10:30:07.630Z,65.11
2019-05-29T10:33:11.821Z,63.70
2019-05-29T10:36:16.253Z,62.96
2019-05-29T10:39:20.234Z,62.36
2019-05-29T10:42:24.595Z,61.38
2019-05-29T10:45:29.035Z,60.51
2019-05-29T10:48:33.069Z,59.78
2019-05-29T10:51:37.764Z,59.24
2019-05-29T10:54:41.733Z,59.24
2019-05-29T10:57:46.635Z,58.64
2019-05-29T11:00:51.352Z,58.01
2019-05-29T11:03:55.908Z,56.70
2019-05-29T11:07:00.618Z,55.48
2019-05-29T11:10:05.359Z,53.49
2019-05-29T11:13:09.435Z,53.49
2019-05-29T11:16:13.617Z,52.78
2019-05-29T11:19:17.980Z,52.83
2019-05-29T11:22:26.102Z,52.50
2019-05-29T11:25:28.685Z,52.50
2019-05-29T11:28:32.625Z,51.67
2019-05-29T11:31:36.641Z,51.06
2019-05-29T11:34:40.512Z,50.58
2019-05-29T11:37:44.780Z,49.89
2019-05-29T11:40:52.289Z,49.23
2019-05-29T11:43:54.931Z,48.41
2019-05-29T11:47:00.697Z,47.31
2019-05-29T11:50:18.609Z,46.18
2019-05-29T11:53:12.529Z,45.19
2019-05-29T11:56:16.806Z,45.01
2019-05-29T11:59:20.885Z,45.26
2019-05-29T12:02:25.209Z,45.16
2019-05-29T12:05:29.641Z,45.24
2019-05-29T12:08:34.025Z,46.14
2019-05-29T12:11:38.467Z,47.46
2019-05-29T12:14:58.805Z,48.81
2019-05-29T12:17:48.570Z,55.23
2019-05-29T12:20:53.963Z,66.95
2019-05-29T12:23:58.540Z,82.97
2019-05-29T12:27:02.869Z,78.81
2019-05-29T12:30:08.278Z,80.81
2019-05-29T12:33:12.206Z,78.99
2019-05-29T12:36:17.082Z,78.69
2019-05-29T12:39:21.168Z,76.91
2019-05-29T12:42:25.124Z,76.54
2019-05-29T12:45:29.155Z,75.92
2019-05-29T12:48:33.192Z,76.35
2019-05-29T12:51:37.245Z,76.25
2019-05-29T12:54:41.282Z,75.75
2019-05-29T12:57:45.908Z,75.86
2019-05-29T13:00:50.252Z,75.38
2019-05-29T13:03:54.273Z,75.33
2019-05-29T13:06:58.927Z,75.55
2019-05-29T13:10:02.961Z,75.78
2019-05-29T13:13:11.047Z,76.09
2019-05-29T13:16:13.743Z,75.39
2019-05-29T13:19:18.067Z,75.14
2019-05-29T13:22:22.407Z,75.19
2019-05-29T13:25:26.399Z,74.88
2019-05-29T13:28:30.408Z,74.98
2019-05-29T13:31:35.046Z,75.01
2019-05-29T13:34:39.925Z,74.50
2019-05-29T13:37:43.955Z,73.93
2019-05-29T13:40:47.948Z,73.62
2019-05-29T13:43:51.965Z,73.37
2019-05-29T13:46:55.913Z,73.68
2019-05-29T13:50:05.492Z,73.75
2019-05-29T13:53:07.445Z,73.66
2019-05-29T13:56:11.881Z,73.48
2019-05-29T13:59:16.200Z,72.79
2019-05-29T14:02:21.160Z,72.29
2019-05-29T14:05:25.432Z,71.71
2019-05-29T14:08:29.535Z,71.83
2019-05-29T14:11:33.828Z,71.46
2019-05-29T14:14:37.864Z,71.29
2019-05-29T14:17:42.237Z,71.43
2019-05-29T14:20:46.361Z,71.63
2019-05-29T14:23:50.680Z,71.62
2019-05-29T14:26:54.719Z,71.64
2019-05-29T14:30:01.003Z,71.14
2019-05-29T14:33:06.819Z,71.12
2019-05-29T14:36:11.492Z,70.77
2019-05-29T14:39:15.562Z,70.87
2019-05-29T14:42:19.593Z,70.01
2019-05-29T14:45:23.879Z,70.21
2019-05-29T14:48:28.184Z,70.05
2019-05-29T14:51:32.430Z,69.51
2019-05-29T14:54:41.962Z,68.99
2019-05-29T14:57:42.988Z,68.52
2019-05-29T15:00:46.987Z,67.60
2019-05-29T15:03:51.883Z,67.72
2019-05-29T15:06:55.790Z,67.63
2019-05-29T15:10:00.055Z,67.63
2019-05-29T15:13:04.421Z,67.78
2019-05-29T15:16:09.118Z,66.73
2019-05-29T15:19:13.355Z,65.31
2019-05-29T15:22:17.230Z,64.84
2019-05-29T15:25:24.438Z,62.80
2019-05-29T15:28:27.707Z,62.24
2019-05-29T15:31:31.776Z,61.92
2019-05-29T15:34:36.150Z,61.45
2019-05-29T15:37:40.226Z,61.45
2019-05-29T15:40:44.549Z,60.80
2019-05-29T15:43:49.387Z,60.67
2019-05-29T15:46:53.772Z,60.84
2019-05-29T15:49:57.775Z,60.32
2019-05-29T15:53:02.133Z,60.13
2019-05-29T15:56:18.294Z,59.23
2019-05-29T15:59:14.227Z,59.01
2019-05-29T16:02:18.188Z,58.50
2019-05-29T16:05:22.394Z,58.13
2019-05-29T16:08:26.477Z,58.29
2019-05-29T16:11:30.720Z,58.00
2019-05-29T16:14:34.680Z,58.04
2019-05-29T16:17:39.112Z,57.76
2019-05-29T16:20:43.278Z,57.78
2019-05-29T16:23:47.556Z,57.60
2019-05-29T16:26:51.607Z,57.54
2019-05-29T16:29:56.115Z,57.47
2019-05-29T16:33:00.131Z,57.34
2019-05-29T16:36:04.559Z,56.58
2019-05-29T16:39:08.774Z,56.58
2019-05-29T16:42:13.968Z,56.43
2019-05-29T16:45:18.765Z,56.13
2019-05-29T16:48:23.019Z,57.01
2019-05-29T16:51:27.690Z,57.01
2019-05-29T16:54:31.726Z,57.13
2019-05-29T16:57:36.024Z,57.40
2019-05-29T17:00:40.445Z,57.58
2019-05-29T17:03:45.028Z,57.48
2019-05-29T17:06:49.302Z,57.54
2019-05-29T17:09:53.358Z,57.85
2019-05-29T17:12:58.050Z,58.42
2019-05-29T17:16:02.162Z,58.48
2019-05-29T17:19:06.267Z,58.52
2019-05-29T17:22:11.035Z,58.58
2019-05-29T17:25:16.819Z,58.63
2019-05-29T17:28:24.303Z,58.75
2019-05-29T17:31:27.377Z,58.91
2019-05-29T17:34:31.757Z,59.12
2019-05-29T17:37:35.993Z,58.95
2019-05-29T17:40:40.020Z,58.76
2019-05-29T17:43:44.350Z,58.42
2019-05-29T17:46:48.747Z,58.48
2019-05-29T17:49:52.692Z,58.42
2019-05-29T17:52:57.011Z,58.59
2019-05-29T17:56:01.042Z,58.66
2019-05-29T17:59:05.247Z,58.40
2019-05-29T18:02:09.893Z,58.48
2019-05-29T18:05:16.388Z,60.37
2019-05-29T18:08:20.777Z,62.43
2019-05-29T18:11:25.280Z,63.13
2019-05-29T18:14:29.480Z,63.96
2019-05-29T18:17:33.774Z,65.10
2019-05-29T18:20:37.905Z,65.64
2019-05-29T18:23:41.764Z,66.03
2019-05-29T18:26:59.198Z,66.38
2019-05-29T18:30:02.863Z,66.77
2019-05-29T18:33:06.899Z,67.45
2019-05-29T18:36:11.152Z,67.63
2019-05-29T18:39:15.157Z,67.75
2019-05-29T18:42:20.378Z,68.12
2019-05-29T18:45:26.172Z,68.33
2019-05-29T18:48:32.545Z,68.59
2019-05-29T18:51:36.379Z,68.87
2019-05-29T18:54:40.916Z,69.21
2019-05-29T18:57:45.605Z,69.66
2019-05-29T19:00:49.658Z,70.27
2019-05-29T19:03:53.926Z,70.70
2019-05-29T19:06:58.470Z,71.26
2019-05-29T19:10:06.275Z,71.46
2019-05-29T19:13:08.285Z,71.80
2019-05-29T19:16:13.083Z,71.97
2019-05-29T19:19:16.954Z,72.25
2019-05-29T19:22:22.250Z,72.27
2019-05-29T19:25:26.840Z,72.37
2019-05-29T19:28:30.878Z,72.46
2019-05-29T19:31:34.820Z,72.57
2019-05-29T19:34:39.131Z,72.82
2019-05-29T19:37:43.281Z,73.05
2019-05-29T19:40:47.400Z,73.27
2019-05-29T19:43:51.510Z,73.36
2019-05-29T19:46:55.530Z,73.58
2019-05-29T19:49:59.540Z,73.69
2019-05-29T19:53:03.502Z,73.92
2019-05-29T19:56:07.664Z,74.12
2019-05-29T19:59:11.786Z,74.22
2019-05-29T20:02:15.875Z,74.35
2019-05-29T20:05:19.958Z,74.56
2019-05-29T20:08:23.971Z,74.67
2019-05-29T20:11:29.358Z,74.87
2019-05-29T20:14:34.086Z,74.93
2019-05-29T20:17:38.726Z,75.08
2019-05-29T20:20:43.280Z,75.29
2019-05-29T20:23:47.604Z,75.43
2019-05-29T20:26:51.627Z,75.51
2019-05-29T20:29:56.247Z,75.52
2019-05-29T20:33:00.162Z,75.50
2019-05-29T20:36:04.446Z,75.51
2019-05-29T20:39:08.681Z,75.63
2019-05-29T20:42:12.711Z,75.69
2019-05-29T20:45:17.852Z,75.78
2019-05-29T20:48:22.557Z,75.88
2019-05-29T20:51:26.590Z,75.93
2019-05-29T20:54:31.596Z,76.03
2019-05-29T20:57:35.926Z,76.06
2019-05-29T21:00:40.480Z,76.16
2019-05-29T21:03:44.796Z,76.26
2019-05-29T21:06:48.817Z,76.36
2019-05-29T21:09:53.021Z,76.35
2019-05-29T21:12:57.329Z,76.45
2019-05-29T21:16:01.342Z,76.52
2019-05-29T21:19:05.364Z,76.54
2019-05-29T21:22:09.388Z,76.58
2019-05-29T21:25:18.572Z,76.62
2019-05-29T21:28:20.345Z,76.60
2019-05-29T21:31:24.598Z,76.59
2019-05-29T21:34:29.116Z,76.56
2019-05-29T21:37:33.361Z,76.74
2019-05-29T21:40:38.284Z,76.81
2019-05-29T21:43:42.746Z,77.01
2019-05-29T21:46:47.275Z,77.00
2019-05-29T21:49:51.583Z,77.14
2019-05-29T21:52:55.633Z,77.13
2019-05-29T21:55:59.920Z,77.07
2019-05-29T21:59:04.506Z,77.04
2019-05-29T22:02:09.108Z,77.13
2019-05-29T22:05:14.239Z,77.18
2019-05-29T22:08:18.957Z,77.19
2019-05-29T22:11:23.036Z,77.42
2019-05-29T22:14:27.380Z,77.61
2019-05-29T22:17:31.342Z,77.85
2019-05-29T22:20:35.461Z,77.85
2019-05-29T22:23:39.741Z,77.79
2019-05-29T22:26:43.879Z,77.80
2019-05-29T22:29:48.300Z,77.80
2019-05-29T22:32:53.287Z,77.88
2019-05-29T22:35:57.550Z,77.95
2019-05-29T22:39:01.867Z,77.89
2019-05-29T22:42:06.020Z,77.78
2019-05-29T22:45:11.420Z,77.63
2019-05-29T22:48:15.426Z,77.49
2019-05-29T22:51:19.490Z,77.44
2019-05-29T22:54:23.462Z,77.44
2019-05-29T22:57:28.015Z,77.41
2019-05-29T23:00:32.029Z,77.36
2019-05-29T23:03:36.651Z,77.48
2019-05-29T23:06:40.663Z,77.52
2019-05-29T23:09:44.668Z,77.54
2019-05-29T23:12:48.608Z,77.52
2019-05-29T23:15:54.401Z,77.55
2019-05-29T23:18:58.754Z,77.57
2019-05-29T23:22:02.939Z,77.73
2019-05-29T23:25:07.465Z,77.87
2019-05-29T23:28:11.480Z,77.89
2019-05-29T23:31:15.421Z,77.86
2019-05-29T23:34:19.672Z,77.65
2019-05-29T23:37:23.676Z,77.44
2019-05-29T23:40:27.700Z,77.28
2019-05-29T23:43:31.785Z,77.16
2019-05-29T23:46:36.144Z,76.97
2019-05-29T23:49:40.843Z,76.92
2019-05-29T23:52:44.872Z,76.71
2019-05-29T23:55:49.114Z,76.64
2019-05-29T23:58:53.627Z,76.67
